sensor_id;sensor_type;location;lat;lon;timestamp;pressure;altitude;pressure_sealevel;temperature;humidity
41898;BME280;27576;53.366;-1.498;2022-12-07T00:00:26;101094.94;;;2.09;100.00
41898;BME280;27576;53.366;-1.498;2022-12-07T00:02:51;101116.00;;;2.19;100.00
41898;BME280;27576;53.366;-1.498;2022-12-07T00:05:16;101087.78;;;2.03;100.00
41898;BME280;27576;53.366;-1.498;2022-12-07T00:07:42;101068.50;;;1.93;100.00
41898;BME280;27576;53.366;-1.498;2022-12-07T00:10:07;101124.72;;;2.23;100.00
41898;BME280;27576;53.366;-1.498;2022-12-07T00:12:33;101088.66;;;2.04;100.00
41898;BME280;27576;53.366;-1.498;2022-12-07T00:14:58;101080.28;;;1.91;100.00
41898;BME280;27576;53.366;-1.498;2022-12-07T00:17:23;101114.25;;;2.18;100.00
41898;BME280;27576;53.366;-1.498;2022-12-07T00:19:49;101047.50;;;1.84;100.00
41898;BME280;27576;53.366;-1.498;2022-12-07T00:22:14;101094.66;;;2.04;100.00
41898;BME280;27576;53.366;-1.498;2022-12-07T00:24:39;101102.69;;;2.10;100.00
41898;BME280;27576;53.366;-1.498;2022-12-07T00:27:05;101064.78;;;1.88;100.00
41898;BME280;27576;53.366;-1.498;2022-12-07T00:29:30;101087.47;;;1.97;100.00
41898;BME280;27576;53.366;-1.498;2022-12-07T00:31:55;101108.69;;;2.11;100.00
41898;BME280;27576;53.366;-1.498;2022-12-07T00:34:21;101085.66;;;1.96;100.00
41898;BME280;27576;53.366;-1.498;2022-12-07T00:36:47;101122.47;;;2.13;100.00
41898;BME280;27576;53.366;-1.498;2022-12-07T00:39:13;101109.13;;;2.04;100.00
41898;BME280;27576;53.366;-1.498;2022-12-07T00:41:38;101106.41;;;2.01;100.00
41898;BME280;27576;53.366;-1.498;2022-12-07T00:44:04;101115.41;;;2.09;100.00
41898;BME280;27576;53.366;-1.498;2022-12-07T00:46:30;101100.06;;;1.94;100.00
41898;BME280;27576;53.366;-1.498;2022-12-07T00:48:56;101096.44;;;1.90;100.00
41898;BME280;27576;53.366;-1.498;2022-12-07T00:51:23;101097.03;;;1.86;100.00
41898;BME280;27576;53.366;-1.498;2022-12-07T00:53:49;101126.75;;;1.99;100.00
41898;BME280;27576;53.366;-1.498;2022-12-07T00:56:18;101079.25;;;1.73;100.00
41898;BME280;27576;53.366;-1.498;2022-12-07T00:58:43;101099.34;;;1.82;100.00
41898;BME280;27576;53.366;-1.498;2022-12-07T01:01:10;101081.78;;;1.73;100.00
41898;BME280;27576;53.366;-1.498;2022-12-07T01:03:36;101087.59;;;1.70;100.00
41898;BME280;27576;53.366;-1.498;2022-12-07T01:06:03;101051.00;;;1.57;100.00
41898;BME280;27576;53.366;-1.498;2022-12-07T01:08:29;101081.00;;;1.74;100.00
41898;BME280;27576;53.366;-1.498;2022-12-07T01:11:03;101110.63;;;1.85;100.00
41898;BME280;27576;53.366;-1.498;2022-12-07T01:13:30;101083.28;;;1.69;100.00
41898;BME280;27576;53.366;-1.498;2022-12-07T01:16:00;101068.38;;;1.62;100.00
41898;BME280;27576;53.366;-1.498;2022-12-07T01:18:27;101075.31;;;1.65;100.00
41898;BME280;27576;53.366;-1.498;2022-12-07T01:21:14;101092.09;;;1.75;100.00
41898;BME280;27576;53.366;-1.498;2022-12-07T01:23:40;101071.44;;;1.57;100.00
41898;BME280;27576;53.366;-1.498;2022-12-07T01:26:09;101085.72;;;1.68;100.00
41898;BME280;27576;53.366;-1.498;2022-12-07T01:28:34;101049.31;;;1.42;100.00
41898;BME280;27576;53.366;-1.498;2022-12-07T01:31:15;101088.41;;;1.69;100.00
41898;BME280;27576;53.366;-1.498;2022-12-07T01:33:46;101092.72;;;1.70;100.00
41898;BME280;27576;53.366;-1.498;2022-12-07T01:36:34;101047.84;;;1.46;100.00
41898;BME280;27576;53.366;-1.498;2022-12-07T01:39:06;101058.41;;;1.52;100.00
41898;BME280;27576;53.366;-1.498;2022-12-07T01:41:34;101042.53;;;1.43;100.00
41898;BME280;27576;53.366;-1.498;2022-12-07T01:44:14;101081.59;;;1.70;100.00
41898;BME280;27576;53.366;-1.498;2022-12-07T01:46:42;101056.84;;;1.54;100.00
41898;BME280;27576;53.366;-1.498;2022-12-07T01:52:00;101082.50;;;1.70;100.00
41898;BME280;27576;53.366;-1.498;2022-12-07T01:54:26;101079.25;;;1.73;100.00
41898;BME280;27576;53.366;-1.498;2022-12-07T01:56:54;101034.19;;;1.45;100.00
41898;BME280;27576;53.366;-1.498;2022-12-07T01:59:23;101073.94;;;1.70;100.00
41898;BME280;27576;53.366;-1.498;2022-12-07T02:01:51;101038.34;;;1.58;100.00
41898;BME280;27576;53.366;-1.498;2022-12-07T02:04:18;101039.28;;;1.60;100.00
41898;BME280;27576;53.366;-1.498;2022-12-07T02:06:44;101087.88;;;1.90;100.00
41898;BME280;27576;53.366;-1.498;2022-12-07T02:09:10;101029.19;;;1.62;100.00
41898;BME280;27576;53.366;-1.498;2022-12-07T02:11:36;101056.78;;;1.82;100.00
41898;BME280;27576;53.366;-1.498;2022-12-07T02:14:02;101052.28;;;1.78;100.00
41898;BME280;27576;53.366;-1.498;2022-12-07T02:22:05;101075.44;;;1.96;100.00
41898;BME280;27576;53.366;-1.498;2022-12-07T02:24:54;101054.47;;;1.87;100.00
41898;BME280;27576;53.366;-1.498;2022-12-07T02:30:07;101060.28;;;1.84;100.00
41898;BME280;27576;53.366;-1.498;2022-12-07T02:35:20;101031.81;;;1.63;100.00
41898;BME280;27576;53.366;-1.498;2022-12-07T02:38:07;101055.06;;;1.68;100.00
41898;BME280;27576;53.366;-1.498;2022-12-07T02:40:58;101055.19;;;1.69;100.00
41898;BME280;27576;53.366;-1.498;2022-12-07T02:45:59;101066.91;;;1.66;100.00
41898;BME280;27576;53.366;-1.498;2022-12-07T02:48:27;101025.34;;;1.40;100.00
41898;BME280;27576;53.366;-1.498;2022-12-07T02:50:55;101030.38;;;1.39;100.00
41898;BME280;27576;53.366;-1.498;2022-12-07T02:55:55;101041.66;;;1.42;100.00
41898;BME280;27576;53.366;-1.498;2022-12-07T03:01:35;101044.41;;;1.45;100.00
41898;BME280;27576;53.366;-1.498;2022-12-07T03:09:46;101046.56;;;1.39;100.00
41898;BME280;27576;53.366;-1.498;2022-12-07T03:12:23;101017.50;;;1.22;100.00
41898;BME280;27576;53.366;-1.498;2022-12-07T03:15:01;101001.44;;;1.10;100.00
41898;BME280;27576;53.366;-1.498;2022-12-07T03:17:31;101021.34;;;1.16;100.00
41898;BME280;27576;53.366;-1.498;2022-12-07T03:20:04;101010.06;;;1.12;100.00
41898;BME280;27576;53.366;-1.498;2022-12-07T03:22:32;101040.56;;;1.24;100.00
41898;BME280;27576;53.366;-1.498;2022-12-07T03:25:04;101023.09;;;1.17;100.00
41898;BME280;27576;53.366;-1.498;2022-12-07T03:27:38;101032.22;;;1.27;100.00
41898;BME280;27576;53.366;-1.498;2022-12-07T03:30:09;101026.53;;;1.17;100.00
41898;BME280;27576;53.366;-1.498;2022-12-07T03:32:42;101000.88;;;1.01;100.00
41898;BME280;27576;53.366;-1.498;2022-12-07T03:35:17;101014.22;;;1.10;100.00
41898;BME280;27576;53.366;-1.498;2022-12-07T03:37:50;101001.41;;;0.95;100.00
41898;BME280;27576;53.366;-1.498;2022-12-07T03:42:42;100975.91;;;0.82;100.00
41898;BME280;27576;53.366;-1.498;2022-12-07T03:45:08;100998.03;;;0.96;100.00
41898;BME280;27576;53.366;-1.498;2022-12-07T03:47:53;101018.41;;;1.10;100.00
41898;BME280;27576;53.366;-1.498;2022-12-07T03:50:43;100991.00;;;0.92;100.00
41898;BME280;27576;53.366;-1.498;2022-12-07T03:53:29;101020.78;;;1.07;100.00
41898;BME280;27576;53.366;-1.498;2022-12-07T03:55:58;100974.88;;;0.79;100.00
41898;BME280;27576;53.366;-1.498;2022-12-07T03:58:24;100982.97;;;0.86;100.00
41898;BME280;27576;53.366;-1.498;2022-12-07T04:00:51;101002.00;;;0.91;100.00
41898;BME280;27576;53.366;-1.498;2022-12-07T04:03:17;101016.00;;;0.98;100.00
41898;BME280;27576;53.366;-1.498;2022-12-07T04:05:42;100982.59;;;0.80;100.00
41898;BME280;27576;53.366;-1.498;2022-12-07T04:08:08;100996.50;;;0.85;100.00
41898;BME280;27576;53.366;-1.498;2022-12-07T04:10:33;100987.50;;;0.77;100.00
41898;BME280;27576;53.366;-1.498;2022-12-07T04:12:59;100969.09;;;0.68;100.00
41898;BME280;27576;53.366;-1.498;2022-12-07T04:15:24;100947.16;;;0.57;100.00
41898;BME280;27576;53.366;-1.498;2022-12-07T04:17:50;101000.81;;;0.86;100.00
41898;BME280;27576;53.366;-1.498;2022-12-07T04:20:16;100977.34;;;0.64;100.00
41898;BME280;27576;53.366;-1.498;2022-12-07T04:22:41;100982.06;;;0.71;100.00
41898;BME280;27576;53.366;-1.498;2022-12-07T04:25:06;100962.66;;;0.60;100.00
41898;BME280;27576;53.366;-1.498;2022-12-07T04:27:32;100968.13;;;0.66;100.00
41898;BME280;27576;53.366;-1.498;2022-12-07T04:30:00;100997.31;;;0.84;100.00
41898;BME280;27576;53.366;-1.498;2022-12-07T04:32:26;100969.09;;;0.68;100.00
41898;BME280;27576;53.366;-1.498;2022-12-07T04:34:51;100966.97;;;0.61;100.00
41898;BME280;27576;53.366;-1.498;2022-12-07T04:37:16;100970.38;;;0.61;100.00
41898;BME280;27576;53.366;-1.498;2022-12-07T04:39:42;100983.41;;;0.66;100.00
41898;BME280;27576;53.366;-1.498;2022-12-07T04:42:10;100987.22;;;0.72;100.00
41898;BME280;27576;53.366;-1.498;2022-12-07T04:44:36;100998.69;;;0.79;100.00
41898;BME280;27576;53.366;-1.498;2022-12-07T04:47:01;100971.25;;;0.62;100.00
41898;BME280;27576;53.366;-1.498;2022-12-07T04:49:27;100914.06;;;0.30;100.00
41898;BME280;27576;53.366;-1.498;2022-12-07T04:51:52;100959.03;;;0.56;100.00
41898;BME280;27576;53.366;-1.498;2022-12-07T04:54:18;100990.75;;;0.74;100.00
41898;BME280;27576;53.366;-1.498;2022-12-07T04:56:44;100981.75;;;0.66;100.00
41898;BME280;27576;53.366;-1.498;2022-12-07T04:59:10;100931.91;;;0.43;100.00
41898;BME280;27576;53.366;-1.498;2022-12-07T05:01:36;100916.03;;;0.34;100.00
41898;BME280;27576;53.366;-1.498;2022-12-07T05:04:01;100965.00;;;0.57;100.00
41898;BME280;27576;53.366;-1.498;2022-12-07T05:06:27;100973.13;;;0.64;100.00
41898;BME280;27576;53.366;-1.498;2022-12-07T05:08:52;100955.69;;;0.57;100.00
41898;BME280;27576;53.366;-1.498;2022-12-07T05:11:18;100990.66;;;0.73;100.00
41898;BME280;27576;53.366;-1.498;2022-12-07T05:14:04;100950.19;;;0.51;100.00
41898;BME280;27576;53.366;-1.498;2022-12-07T05:16:30;100949.31;;;0.51;100.00
41898;BME280;27576;53.366;-1.498;2022-12-07T05:18:55;100969.44;;;0.59;100.00
41898;BME280;27576;53.366;-1.498;2022-12-07T05:21:21;100977.81;;;0.71;100.00
41898;BME280;27576;53.366;-1.498;2022-12-07T05:23:46;100938.75;;;0.44;100.00
41898;BME280;27576;53.366;-1.498;2022-12-07T05:26:12;100951.69;;;0.47;100.00
41898;BME280;27576;53.366;-1.498;2022-12-07T05:28:37;100950.72;;;0.45;100.00
41898;BME280;27576;53.366;-1.498;2022-12-07T05:31:03;100958.97;;;0.41;100.00
41898;BME280;27576;53.366;-1.498;2022-12-07T05:33:28;100965.81;;;0.42;100.00
41898;BME280;27576;53.366;-1.498;2022-12-07T05:35:57;100963.66;;;0.35;100.00
41898;BME280;27576;53.366;-1.498;2022-12-07T05:38:22;100990.44;;;0.55;100.00
41898;BME280;27576;53.366;-1.498;2022-12-07T05:40:47;100982.56;;;0.52;100.00
41898;BME280;27576;53.366;-1.498;2022-12-07T05:43:13;100972.78;;;0.45;100.00
41898;BME280;27576;53.366;-1.498;2022-12-07T05:45:38;100918.81;;;0.11;100.00
41898;BME280;27576;53.366;-1.498;2022-12-07T05:48:04;100957.31;;;0.29;100.00
41898;BME280;27576;53.366;-1.498;2022-12-07T05:50:29;100974.66;;;0.34;100.00
41898;BME280;27576;53.366;-1.498;2022-12-07T05:52:55;100975.72;;;0.38;100.00
41898;BME280;27576;53.366;-1.498;2022-12-07T05:55:20;100927.25;;;0.10;100.00
41898;BME280;27576;53.366;-1.498;2022-12-07T05:57:45;100968.47;;;0.31;100.00
41898;BME280;27576;53.366;-1.498;2022-12-07T06:00:31;100987.78;;;0.40;100.00
41898;BME280;27576;53.366;-1.498;2022-12-07T06:02:56;100953.88;;;0.15;100.00
41898;BME280;27576;53.366;-1.498;2022-12-07T06:05:22;100983.69;;;0.29;100.00
41898;BME280;27576;53.366;-1.498;2022-12-07T06:07:47;100931.66;;;-0.01;100.00
41898;BME280;27576;53.366;-1.498;2022-12-07T06:10:12;100942.25;;;0.05;100.00
41898;BME280;27576;53.366;-1.498;2022-12-07T06:12:38;100976.50;;;0.23;100.00
41898;BME280;27576;53.366;-1.498;2022-12-07T06:15:05;100983.47;;;0.26;100.00
41898;BME280;27576;53.366;-1.498;2022-12-07T06:17:30;100953.41;;;0.07;100.00
41898;BME280;27576;53.366;-1.498;2022-12-07T06:19:56;100978.91;;;0.20;100.00
41898;BME280;27576;53.366;-1.498;2022-12-07T06:22:21;100961.75;;;0.05;100.00
41898;BME280;27576;53.366;-1.498;2022-12-07T06:24:47;100970.75;;;0.13;100.00
41898;BME280;27576;53.366;-1.498;2022-12-07T06:27:12;100983.88;;;0.19;100.00
41898;BME280;27576;53.366;-1.498;2022-12-07T06:29:38;100944.09;;;-0.06;100.00
41898;BME280;27576;53.366;-1.498;2022-12-07T06:32:03;100974.47;;;0.18;100.00
41898;BME280;27576;53.366;-1.498;2022-12-07T06:34:29;100937.94;;;-0.09;100.00
41898;BME280;27576;53.366;-1.498;2022-12-07T06:36:55;100946.94;;;-0.01;100.00
41898;BME280;27576;53.366;-1.498;2022-12-07T06:39:23;100976.63;;;0.12;100.00
41898;BME280;27576;53.366;-1.498;2022-12-07T06:41:49;100964.59;;;0.09;100.00
41898;BME280;27576;53.366;-1.498;2022-12-07T06:44:14;100935.88;;;-0.15;100.00
41898;BME280;27576;53.366;-1.498;2022-12-07T06:46:39;100935.09;;;-0.14;100.00
41898;BME280;27576;53.366;-1.498;2022-12-07T06:49:05;100955.16;;;-0.05;100.00
41898;BME280;27576;53.366;-1.498;2022-12-07T06:51:31;100950.06;;;-0.05;100.00
41898;BME280;27576;53.366;-1.498;2022-12-07T06:53:57;100934.91;;;-0.17;100.00
41898;BME280;27576;53.366;-1.498;2022-12-07T06:56:22;100956.75;;;-0.07;100.00
41898;BME280;27576;53.366;-1.498;2022-12-07T06:58:48;100956.25;;;-0.02;100.00
41898;BME280;27576;53.366;-1.498;2022-12-07T07:01:17;100965.25;;;0.07;100.00
41898;BME280;27576;53.366;-1.498;2022-12-07T07:03:44;100938.94;;;-0.07;100.00
41898;BME280;27576;53.366;-1.498;2022-12-07T07:06:10;100968.97;;;0.12;100.00
41898;BME280;27576;53.366;-1.498;2022-12-07T07:08:37;100951.56;;;0.05;100.00
41898;BME280;27576;53.366;-1.498;2022-12-07T07:11:03;100907.75;;;-0.16;100.00
41898;BME280;27576;53.366;-1.498;2022-12-07T07:13:28;100883.38;;;-0.26;100.00
41898;BME280;27576;53.366;-1.498;2022-12-07T07:15:54;100955.34;;;0.11;100.00
41898;BME280;27576;53.366;-1.498;2022-12-07T07:18:20;100955.75;;;0.17;100.00
41898;BME280;27576;53.366;-1.498;2022-12-07T07:20:46;100913.53;;;-0.06;100.00
41898;BME280;27576;53.366;-1.498;2022-12-07T07:23:12;100884.66;;;-0.19;100.00
41898;BME280;27576;53.366;-1.498;2022-12-07T07:25:37;100942.63;;;0.11;100.00
41898;BME280;27576;53.366;-1.498;2022-12-07T07:28:03;100915.28;;;-0.05;100.00
41898;BME280;27576;53.366;-1.498;2022-12-07T07:30:30;100919.13;;;0.02;100.00
41898;BME280;27576;53.366;-1.498;2022-12-07T07:32:59;100911.47;;;0.02;100.00
41898;BME280;27576;53.366;-1.498;2022-12-07T07:35:26;100924.63;;;0.08;100.00
41898;BME280;27576;53.366;-1.498;2022-12-07T07:37:52;100914.81;;;0.01;100.00
41898;BME280;27576;53.366;-1.498;2022-12-07T07:40:18;100911.47;;;0.02;100.00
41898;BME280;27576;53.366;-1.498;2022-12-07T07:42:43;100956.25;;;0.25;100.00
41898;BME280;27576;53.366;-1.498;2022-12-07T07:45:09;100949.38;;;0.24;100.00
41898;BME280;27576;53.366;-1.498;2022-12-07T07:47:35;100954.09;;;0.18;100.00
41898;BME280;27576;53.366;-1.498;2022-12-07T07:50:00;100920.78;;;0.02;100.00
41898;BME280;27576;53.366;-1.498;2022-12-07T07:52:26;100939.31;;;0.12;100.00
41898;BME280;27576;53.366;-1.498;2022-12-07T07:54:51;100950.00;;;0.20;100.00
41898;BME280;27576;53.366;-1.498;2022-12-07T07:57:17;100937.63;;;0.13;100.00
41898;BME280;27576;53.366;-1.498;2022-12-07T07:59:42;100942.44;;;0.21;100.00
41898;BME280;27576;53.366;-1.498;2022-12-07T08:02:16;100943.22;;;0.20;100.00
41898;BME280;27576;53.366;-1.498;2022-12-07T08:04:42;100879.75;;;-0.16;100.00
41898;BME280;27576;53.366;-1.498;2022-12-07T08:07:07;100925.38;;;0.07;100.00
41898;BME280;27576;53.366;-1.498;2022-12-07T08:09:32;100947.44;;;0.20;100.00
41898;BME280;27576;53.366;-1.498;2022-12-07T08:11:58;100935.84;;;0.12;100.00
41898;BME280;27576;53.366;-1.498;2022-12-07T08:14:24;100945.47;;;0.16;100.00
41898;BME280;27576;53.366;-1.498;2022-12-07T08:16:49;100897.19;;;-0.09;100.00
41898;BME280;27576;53.366;-1.498;2022-12-07T08:19:15;100920.88;;;0.03;100.00
41898;BME280;27576;53.366;-1.498;2022-12-07T08:21:40;100952.41;;;0.18;100.00
41898;BME280;27576;53.366;-1.498;2022-12-07T08:24:06;100931.34;;;0.08;100.00
41898;BME280;27576;53.366;-1.498;2022-12-07T08:26:32;100905.81;;;-0.07;100.00
41898;BME280;27576;53.366;-1.498;2022-12-07T08:28:57;100924.50;;;0.07;100.00
41898;BME280;27576;53.366;-1.498;2022-12-07T08:31:22;100928.50;;;0.03;100.00
41898;BME280;27576;53.366;-1.498;2022-12-07T08:33:48;100921.47;;;-0.01;100.00
41898;BME280;27576;53.366;-1.498;2022-12-07T08:36:14;100900.50;;;-0.10;100.00
41898;BME280;27576;53.366;-1.498;2022-12-07T08:38:41;100956.91;;;0.22;100.00
41898;BME280;27576;53.366;-1.498;2022-12-07T08:41:07;100945.47;;;0.16;100.00
41898;BME280;27576;53.366;-1.498;2022-12-07T08:43:33;100951.94;;;0.24;100.00
41898;BME280;27576;53.366;-1.498;2022-12-07T08:48:57;100942.94;;;0.16;100.00
41898;BME280;27576;53.366;-1.498;2022-12-07T08:51:24;100945.47;;;0.16;100.00
41898;BME280;27576;53.366;-1.498;2022-12-07T08:53:51;100957.78;;;0.23;100.00
41898;BME280;27576;53.366;-1.498;2022-12-07T08:56:18;100889.25;;;-0.14;100.00
41898;BME280;27576;53.366;-1.498;2022-12-07T08:58:43;100912.28;;;0.01;100.00
41898;BME280;27576;53.366;-1.498;2022-12-07T09:01:09;100901.88;;;-0.02;100.00
41898;BME280;27576;53.366;-1.498;2022-12-07T09:03:35;100928.19;;;0.12;100.00
41898;BME280;27576;53.366;-1.498;2022-12-07T09:06:00;100908.84;;;0.01;100.00
41898;BME280;27576;53.366;-1.498;2022-12-07T09:08:41;100907.25;;;0.03;100.00
41898;BME280;27576;53.366;-1.498;2022-12-07T09:11:08;100903.84;;;0.02;100.00
41898;BME280;27576;53.366;-1.498;2022-12-07T09:13:33;100896.47;;;0.07;100.00
41898;BME280;27576;53.366;-1.498;2022-12-07T09:15:58;100922.53;;;0.16;100.00
41898;BME280;27576;53.366;-1.498;2022-12-07T09:18:24;100907.81;;;0.12;100.00
41898;BME280;27576;53.366;-1.498;2022-12-07T09:20:50;100908.91;;;0.15;100.00
41898;BME280;27576;53.366;-1.498;2022-12-07T09:23:15;100919.28;;;0.18;100.00
41898;BME280;27576;53.366;-1.498;2022-12-07T09:25:41;100915.47;;;0.25;100.00
41898;BME280;27576;53.366;-1.498;2022-12-07T09:28:06;100896.16;;;0.15;100.00
41898;BME280;27576;53.366;-1.498;2022-12-07T09:30:31;100896.47;;;0.20;100.00
41898;BME280;27576;53.366;-1.498;2022-12-07T09:32:57;100873.72;;;0.10;100.00
41898;BME280;27576;53.366;-1.498;2022-12-07T09:35:24;100910.25;;;0.37;100.00
41898;BME280;27576;53.366;-1.498;2022-12-07T09:37:49;100928.75;;;0.47;100.00
41898;BME280;27576;53.366;-1.498;2022-12-07T09:40:16;100881.06;;;0.18;100.00
41898;BME280;27576;53.366;-1.498;2022-12-07T09:42:45;100917.28;;;0.41;100.00
41898;BME280;27576;53.366;-1.498;2022-12-07T09:45:30;100907.56;;;0.35;100.00
41898;BME280;27576;53.366;-1.498;2022-12-07T09:47:58;100912.88;;;0.38;100.00
41898;BME280;27576;53.366;-1.498;2022-12-07T09:50:26;100921.38;;;0.52;100.00
41898;BME280;27576;53.366;-1.498;2022-12-07T09:52:54;100909.13;;;0.46;100.00
41898;BME280;27576;53.366;-1.498;2022-12-07T09:55:27;100912.75;;;0.50;100.00
41898;BME280;27576;53.366;-1.498;2022-12-07T09:57:54;100910.31;;;0.52;100.00
41898;BME280;27576;53.366;-1.498;2022-12-07T10:00:21;100904.81;;;0.45;100.00
41898;BME280;27576;53.366;-1.498;2022-12-07T10:05:19;100895.41;;;0.44;100.00
41898;BME280;27576;53.366;-1.498;2022-12-07T10:07:46;100828.56;;;0.07;100.00
41898;BME280;27576;53.366;-1.498;2022-12-07T10:10:35;100918.19;;;0.69;100.00
41898;BME280;27576;53.366;-1.498;2022-12-07T10:13:06;100923.75;;;0.77;100.00
41898;BME280;27576;53.366;-1.498;2022-12-07T10:20:45;100885.22;;;0.72;100.00
41898;BME280;27576;53.366;-1.498;2022-12-07T10:23:15;100912.69;;;0.91;100.00
41898;BME280;27576;53.366;-1.498;2022-12-07T10:25:42;100912.88;;;0.94;100.00
41898;BME280;27576;53.366;-1.498;2022-12-07T10:30:45;100906.63;;;1.04;100.00
41898;BME280;27576;53.366;-1.498;2022-12-07T10:33:36;100904.34;;;1.09;100.00
41898;BME280;27576;53.366;-1.498;2022-12-07T10:36:17;100884.09;;;0.97;100.00
41898;BME280;27576;53.366;-1.498;2022-12-07T10:38:45;100884.38;;;1.02;100.00
41898;BME280;27576;53.366;-1.498;2022-12-07T10:41:11;100888.16;;;1.08;100.00
41898;BME280;27576;53.366;-1.498;2022-12-07T10:43:46;100902.50;;;1.21;100.00
41898;BME280;27576;53.366;-1.498;2022-12-07T11:00:37;100883.53;;;1.31;100.00
41898;BME280;27576;53.366;-1.498;2022-12-07T11:08:57;100871.00;;;1.35;100.00
41898;BME280;27576;53.366;-1.498;2022-12-07T11:12:05;100871.97;;;1.37;100.00
41898;BME280;27576;53.366;-1.498;2022-12-07T11:22:52;100842.31;;;1.39;100.00
41898;BME280;27576;53.366;-1.498;2022-12-07T11:39:04;100834.50;;;1.67;100.00
41898;BME280;27576;53.366;-1.498;2022-12-07T11:41:38;100810.22;;;1.59;100.00
41898;BME280;27576;53.366;-1.498;2022-12-07T11:46:50;100824.25;;;1.82;100.00
41898;BME280;27576;53.366;-1.498;2022-12-07T11:49:37;100818.09;;;1.79;100.00
41898;BME280;27576;53.366;-1.498;2022-12-07T11:52:18;100799.09;;;1.74;100.00
41898;BME280;27576;53.366;-1.498;2022-12-07T11:54:47;100796.44;;;1.72;100.00
41898;BME280;27576;53.366;-1.498;2022-12-07T11:57:23;100796.84;;;1.80;100.00
41898;BME280;27576;53.366;-1.498;2022-12-07T11:59:52;100800.63;;;1.86;100.00
41898;BME280;27576;53.366;-1.498;2022-12-07T12:02:49;100782.56;;;1.83;100.00
41898;BME280;27576;53.366;-1.498;2022-12-07T12:05:21;100790.41;;;1.86;100.00
41898;BME280;27576;53.366;-1.498;2022-12-07T12:07:53;100764.38;;;1.77;100.00
41898;BME280;27576;53.366;-1.498;2022-12-07T12:10:45;100763.72;;;1.81;100.00
41898;BME280;27576;53.366;-1.498;2022-12-07T12:13:33;100750.03;;;1.81;100.00
41898;BME280;27576;53.366;-1.498;2022-12-07T12:16:10;100763.75;;;1.98;100.00
41898;BME280;27576;53.366;-1.498;2022-12-07T12:21:17;100756.31;;;2.02;100.00
41898;BME280;27576;53.366;-1.498;2022-12-07T12:24:01;100691.38;;;1.66;100.00
41898;BME280;27576;53.366;-1.498;2022-12-07T12:26:31;100755.75;;;2.08;100.00
41898;BME280;27576;53.366;-1.498;2022-12-07T12:29:02;100753.34;;;2.11;100.00
41898;BME280;27576;53.366;-1.498;2022-12-07T12:33:55;100754.63;;;2.19;100.00
41898;BME280;27576;53.366;-1.498;2022-12-07T12:39:15;100752.69;;;2.31;100.00
41898;BME280;27576;53.366;-1.498;2022-12-07T12:47:04;100705.81;;;3.74;100.00
41898;BME280;27576;53.366;-1.498;2022-12-07T12:50:13;100710.06;;;5.60;100.00
41898;BME280;27576;53.366;-1.498;2022-12-07T12:57:34;100691.09;;;9.25;93.09
41898;BME280;27576;53.366;-1.498;2022-12-07T13:02:55;100657.31;;;10.46;76.89
41898;BME280;27576;53.366;-1.498;2022-12-07T13:05:26;100679.03;;;10.54;72.25
41898;BME280;27576;53.366;-1.498;2022-12-07T13:07:56;100703.50;;;10.24;75.50
41898;BME280;27576;53.366;-1.498;2022-12-07T13:15:55;100713.94;;;8.39;71.37
41898;BME280;27576;53.366;-1.498;2022-12-07T13:18:37;100652.91;;;7.49;73.73
41898;BME280;27576;53.366;-1.498;2022-12-07T13:23:58;100690.13;;;7.28;74.17
41898;BME280;27576;53.366;-1.498;2022-12-07T13:26:37;100677.00;;;6.94;76.39
41898;BME280;27576;53.366;-1.498;2022-12-07T13:31:39;100684.06;;;6.21;77.24
41898;BME280;27576;53.366;-1.498;2022-12-07T13:36:57;100679.34;;;5.63;78.87
41898;BME280;27576;53.366;-1.498;2022-12-07T13:39:25;100676.38;;;5.30;79.87
41898;BME280;27576;53.366;-1.498;2022-12-07T13:42:11;100676.88;;;4.99;82.35
41898;BME280;27576;53.366;-1.498;2022-12-07T13:44:40;100662.44;;;4.59;84.01
41898;BME280;27576;53.366;-1.498;2022-12-07T13:47:14;100663.94;;;4.33;84.02
41898;BME280;27576;53.366;-1.498;2022-12-07T13:49:51;100633.28;;;3.96;84.92
41898;BME280;27576;53.366;-1.498;2022-12-07T13:52:25;100679.81;;;4.05;84.85
41898;BME280;27576;53.366;-1.498;2022-12-07T13:57:33;100644.06;;;3.50;86.12
41898;BME280;27576;53.366;-1.498;2022-12-07T14:00:05;100653.09;;;3.41;87.67
41898;BME280;27576;53.366;-1.498;2022-12-07T14:02:57;100641.38;;;3.27;89.54
41898;BME280;27576;53.366;-1.498;2022-12-07T14:05:34;100648.38;;;3.31;90.24
41898;BME280;27576;53.366;-1.498;2022-12-07T14:08:22;100661.75;;;3.26;90.84
41898;BME280;27576;53.366;-1.498;2022-12-07T14:13:35;100649.94;;;3.10;95.06
41898;BME280;27576;53.366;-1.498;2022-12-07T14:16:02;100614.59;;;2.83;94.17
41898;BME280;27576;53.366;-1.498;2022-12-07T14:18:37;100616.47;;;2.87;93.70
41898;BME280;27576;53.366;-1.498;2022-12-07T14:21:25;100626.84;;;2.90;94.42
41898;BME280;27576;53.366;-1.498;2022-12-07T14:24:17;100628.31;;;2.85;94.51
41898;BME280;27576;53.366;-1.498;2022-12-07T14:26:46;100599.81;;;2.60;95.03
41898;BME280;27576;53.366;-1.498;2022-12-07T14:31:51;100591.41;;;2.44;93.78
41898;BME280;27576;53.366;-1.498;2022-12-07T14:34:19;100586.66;;;2.34;96.46
41898;BME280;27576;53.366;-1.498;2022-12-07T14:36:45;100614.44;;;2.44;95.55
41898;BME280;27576;53.366;-1.498;2022-12-07T14:39:10;100618.91;;;2.49;97.36
41898;BME280;27576;53.366;-1.498;2022-12-07T14:41:36;100622.22;;;2.47;96.76
41898;BME280;27576;53.366;-1.498;2022-12-07T14:44:18;100619.59;;;2.46;97.63
41898;BME280;27576;53.366;-1.498;2022-12-07T14:46:44;100585.47;;;2.28;98.50
41898;BME280;27576;53.366;-1.498;2022-12-07T14:49:10;100599.59;;;2.37;99.03
41898;BME280;27576;53.366;-1.498;2022-12-07T14:51:38;100577.34;;;2.18;98.96
41898;BME280;27576;53.366;-1.498;2022-12-07T14:54:05;100593.66;;;2.20;99.36
41898;BME280;27576;53.366;-1.498;2022-12-07T14:56:31;100590.84;;;2.16;100.00
41898;BME280;27576;53.366;-1.498;2022-12-07T14:58:56;100627.50;;;2.33;100.00
41898;BME280;27576;53.366;-1.498;2022-12-07T15:01:23;100564.56;;;2.01;100.00